General Aviation Weather

Text Reports

Enter one or more of the following location identifiers separated by a space:

Zip Code, Four-Character ICAO or Three-Character IATA airport codes.

METAR - Aviation Routine Weather Report
K0F2 - Bowie, Texas
Updated at 5:35 PM GMT on July 28, 2014 (12:35 PM CDT):
METAR K0F2 281735Z AUTO 36010KT 10SM CLR 27/21 A3022 RMK AO2 LTG DSNT N T02650210
TAF - Terminal Area Forecast
K0F2 - Bowie, Texas
Updated at 5:35 PM GMT on July 28, 2014 (12:35 PM CDT):
No TAF is currently available for this location.
Decoded:
No decoded TAF is available.
PIREP - Pilot Weather Report
K0F2 - Bowie, Texas
Updated at 5:35 PM GMT on July 28, 2014 (12:35 PM CDT):
No PIREP is currently available for this location.
AIRMET - Airmens Meteorological Information
K0F2 - Bowie, Texas
Updated at 5:35 PM GMT on July 28, 2014 (12:35 PM CDT):
No AIRMET is currently available for this location.
SIGMET - Significant Meteorological Information
K0F2 - Bowie, Texas
Updated at 5:35 PM GMT on July 28, 2014 (12:35 PM CDT):
No SIGMET is currently available for this location.
NOTAM - Notice to Airmen
K0F2 - Bowie, Texas
Updated at 5:35 PM GMT on July 28, 2014 (12:35 PM CDT):
No NOTAM is currently available for this location.
Forecast Area
K0F2 - Bowie, Texas
Updated at 5:35 PM GMT on July 28, 2014 (12:35 PM CDT):
No NOTAM is currently available for this location.
Aviation Weather Maps